createdAt,value
2022-08-14T00:03:07.562Z,20.01
2022-08-14T00:08:14.251Z,21.19
2022-08-14T00:13:21.264Z,23.39
2022-08-14T00:19:05.392Z,21.97
2022-08-14T00:23:54.110Z,20.49
2022-08-14T00:28:57.043Z,21.10
2022-08-14T00:34:36.990Z,23.13
2022-08-14T00:39:24.044Z,21.43
2022-08-14T00:44:32.294Z,20.16
2022-08-14T00:49:42.509Z,20.94
2022-08-14T00:54:58.097Z,23.12
2022-08-14T01:00:01.454Z,21.57
2022-08-14T01:05:07.712Z,20.23
2022-08-14T01:10:11.228Z,21.03
2022-08-14T01:15:14.811Z,22.92
2022-08-14T01:20:40.088Z,21.26
2022-08-14T01:25:44.323Z,19.82
2022-08-14T01:30:49.983Z,21.12
2022-08-14T01:36:03.816Z,22.66
2022-08-14T01:41:11.984Z,20.78
2022-08-14T01:46:36.703Z,20.86
2022-08-14T01:51:41.075Z,22.82
2022-08-14T01:56:44.924Z,21.10
2022-08-14T02:01:58.936Z,19.60
2022-08-14T02:07:05.622Z,20.99
2022-08-14T02:12:09.339Z,22.44
2022-08-14T02:17:13.474Z,20.60
2022-08-14T02:22:29.234Z,20.78
2022-08-14T02:28:23.805Z,22.65
2022-08-14T02:33:01.629Z,20.79
2022-08-14T02:38:04.911Z,19.58
2022-08-14T02:43:07.913Z,21.61
2022-08-14T02:49:04.443Z,22.33
2022-08-14T02:53:33.746Z,20.38
2022-08-14T02:58:42.846Z,20.93
2022-08-14T03:03:48.457Z,22.91
2022-08-14T03:08:53.518Z,21.33
2022-08-14T03:13:56.775Z,19.88
2022-08-14T03:19:02.718Z,20.53
2022-08-14T03:24:21.696Z,22.94
2022-08-14T03:29:29.485Z,21.76
2022-08-14T03:34:48.539Z,20.13
2022-08-14T03:39:55.526Z,20.94
2022-08-14T03:45:18.968Z,22.86
2022-08-14T03:50:30.898Z,21.15
2022-08-14T03:55:35.113Z,19.81
2022-08-14T04:00:42.603Z,20.74
2022-08-14T04:05:48.739Z,22.97
2022-08-14T04:10:52.228Z,21.53
2022-08-14T04:16:01.298Z,20.16
2022-08-14T04:21:05.060Z,21.38
2022-08-14T04:26:14.377Z,23.28
2022-08-14T04:31:24.753Z,21.79
2022-08-14T04:36:27.766Z,20.52
2022-08-14T04:41:49.215Z,21.24
2022-08-14T04:47:12.661Z,23.54
2022-08-14T04:52:23.405Z,22.04
2022-08-14T04:57:27.709Z,20.75
2022-08-14T05:02:34.770Z,21.37
2022-08-14T05:07:53.819Z,22.90
2022-08-14T05:13:12.657Z,21.41
2022-08-14T05:19:16.576Z,23.07
2022-08-14T05:23:42.664Z,23.14
2022-08-14T05:28:49.352Z,21.83
2022-08-14T05:33:56.389Z,23.69
2022-08-14T05:38:59.704Z,24.39
2022-08-14T05:44:05.702Z,22.98
2022-08-14T05:49:09.115Z,22.33
2022-08-14T05:54:26.656Z,23.71
2022-08-14T05:59:36.815Z,23.93
2022-08-14T06:04:49.394Z,22.84
2022-08-14T06:09:52.661Z,22.31
2022-08-14T06:14:55.492Z,22.83
2022-08-14T06:19:58.433Z,24.70
2022-08-14T06:25:01.189Z,23.66
2022-08-14T06:30:09.107Z,22.93
2022-08-14T06:35:15.137Z,22.50
2022-08-14T06:40:27.624Z,22.19
2022-08-14T06:45:32.989Z,24.19
2022-08-14T06:50:36.752Z,25.38
2022-08-14T06:55:40.769Z,23.98
2022-08-14T07:01:26.692Z,23.27
2022-08-14T07:06:46.368Z,23.02
2022-08-14T07:11:51.898Z,23.10
2022-08-14T07:16:55.314Z,23.35
2022-08-14T07:21:59.147Z,23.56
2022-08-14T07:27:08.137Z,23.71
2022-08-14T07:32:12.355Z,23.84
2022-08-14T07:37:25.121Z,23.90
2022-08-14T07:42:29.246Z,23.76
2022-08-14T07:47:31.925Z,23.60
2022-08-14T07:52:35.334Z,23.54
2022-08-14T07:57:40.733Z,23.65
2022-08-14T08:02:45.989Z,23.92
2022-08-14T08:07:49.323Z,24.34
2022-08-14T08:13:11.142Z,24.87
2022-08-14T08:18:27.801Z,25.49
2022-08-14T08:23:40.789Z,26.02
2022-08-14T08:28:57.158Z,26.43
2022-08-14T08:34:05.282Z,26.76
2022-08-14T08:39:16.486Z,26.89
2022-08-14T08:44:31.749Z,27.03
2022-08-14T08:49:48.410Z,27.00
2022-08-14T08:54:56.385Z,26.93
2022-08-14T09:00:02.464Z,26.93
2022-08-14T09:05:12.652Z,26.94
2022-08-14T09:10:17.506Z,26.99
2022-08-14T09:15:25.054Z,27.17
2022-08-14T09:20:30.849Z,27.49
2022-08-14T09:26:00.111Z,27.86
2022-08-14T09:30:59.663Z,28.05
2022-08-14T09:36:32.247Z,28.10
2022-08-14T09:42:21.502Z,28.11
2022-08-14T09:47:46.208Z,28.17
2022-08-14T09:53:18.487Z,28.34
2022-08-14T09:58:23.042Z,28.60
2022-08-14T10:03:36.433Z,28.79
2022-08-14T10:08:51.434Z,28.88
2022-08-14T10:13:59.187Z,28.92
2022-08-14T10:19:10.541Z,28.91
2022-08-14T10:24:40.248Z,29.02
2022-08-14T10:29:51.066Z,29.34
2022-08-14T10:35:13.816Z,29.75
2022-08-14T10:40:38.064Z,30.18
2022-08-14T10:46:04.014Z,30.67
2022-08-14T10:51:30.307Z,31.21
2022-08-14T10:56:37.151Z,31.64
2022-08-14T11:01:41.720Z,31.78
2022-08-14T11:06:56.079Z,31.77
2022-08-14T11:12:34.567Z,31.81
2022-08-14T11:17:25.781Z,31.94
2022-08-14T11:22:52.898Z,32.18
2022-08-14T11:27:56.989Z,32.39
2022-08-14T11:32:59.724Z,32.62
2022-08-14T11:38:04.732Z,32.89
2022-08-14T11:43:09.127Z,32.88
2022-08-14T11:49:03.050Z,32.78
2022-08-14T11:53:42.354Z,32.59
2022-08-14T11:58:53.022Z,32.42
2022-08-14T12:04:00.989Z,32.16
2022-08-14T12:09:04.121Z,32.17
2022-08-14T12:14:30.188Z,32.42
2022-08-14T12:19:51.555Z,32.75
2022-08-14T12:24:57.397Z,32.94
2022-08-14T12:30:00.655Z,32.96
2022-08-14T12:35:03.690Z,32.81
2022-08-14T12:40:11.666Z,32.64
2022-08-14T12:45:17.387Z,32.66
2022-08-14T12:50:20.697Z,32.95
2022-08-14T12:55:32.765Z,33.16
2022-08-14T13:01:16.238Z,33.14
2022-08-14T13:06:17.798Z,33.33
2022-08-14T13:11:23.783Z,33.81
2022-08-14T13:16:33.805Z,34.40
2022-08-14T13:21:58.437Z,34.59
2022-08-14T13:27:05.994Z,34.99
2022-08-14T13:32:13.666Z,35.31
2022-08-14T13:37:19.006Z,35.40
2022-08-14T13:42:22.465Z,35.05
2022-08-14T13:47:30.432Z,34.72
2022-08-14T13:52:52.214Z,34.28
2022-08-14T13:58:04.598Z,34.10
2022-08-14T14:03:09.054Z,33.86
2022-08-14T14:08:18.552Z,33.50
2022-08-14T14:13:22.357Z,32.86
2022-08-14T14:18:34.234Z,32.18
2022-08-14T14:23:38.631Z,31.35
2022-08-14T14:28:43.166Z,30.19
2022-08-14T14:33:48.969Z,29.13
2022-08-14T14:39:04.688Z,28.27
2022-08-14T14:44:11.238Z,27.23
2022-08-14T14:49:31.845Z,25.38
2022-08-14T14:54:46.460Z,25.01
2022-08-14T14:59:49.966Z,26.94
2022-08-14T15:04:53.100Z,26.91
2022-08-14T15:09:55.919Z,26.10
2022-08-14T15:15:09.067Z,27.18
2022-08-14T15:20:17.605Z,25.40
2022-08-14T15:25:31.982Z,26.48
2022-08-14T15:30:34.753Z,27.83
2022-08-14T15:35:37.998Z,28.56
2022-08-14T15:40:51.430Z,27.58
2022-08-14T15:46:00.043Z,25.73
2022-08-14T15:51:04.386Z,25.94
2022-08-14T15:56:09.800Z,27.79
2022-08-14T16:01:37.084Z,28.62
2022-08-14T16:06:45.485Z,27.68
2022-08-14T16:11:57.838Z,25.78
2022-08-14T16:17:02.734Z,26.92
2022-08-14T16:22:58.042Z,28.39
2022-08-14T16:27:40.829Z,28.07
2022-08-14T16:32:55.891Z,26.02
2022-08-14T16:38:44.876Z,26.25
2022-08-14T16:43:26.724Z,28.07
2022-08-14T16:48:57.138Z,28.72
2022-08-14T16:53:54.674Z,28.25
2022-08-14T16:59:09.319Z,26.36
2022-08-14T17:04:24.706Z,26.63
2022-08-14T17:09:29.761Z,28.45
2022-08-14T17:14:58.042Z,28.07
2022-08-14T17:20:02.407Z,26.01
2022-08-14T17:25:12.262Z,27.01
2022-08-14T17:30:32.628Z,28.42
2022-08-14T17:35:58.678Z,28.08
2022-08-14T17:41:22.190Z,26.61
2022-08-14T17:46:43.178Z,28.21
2022-08-14T17:52:17.217Z,28.13
2022-08-14T17:57:24.488Z,26.00
2022-08-14T18:02:32.818Z,26.77
2022-08-14T18:07:59.426Z,27.87
2022-08-14T18:13:01.726Z,28.34
2022-08-14T18:18:08.997Z,27.98
2022-08-14T18:23:13.103Z,26.06
2022-08-14T18:28:18.360Z,26.96
2022-08-14T18:33:51.886Z,28.31
2022-08-14T18:39:21.193Z,27.97
2022-08-14T18:44:50.677Z,26.09
2022-08-14T18:49:54.284Z,27.62
2022-08-14T18:54:59.092Z,28.56
2022-08-14T19:00:40.672Z,27.89
2022-08-14T19:05:47.840Z,25.95
2022-08-14T19:10:57.677Z,27.44
2022-08-14T19:16:08.796Z,28.38
2022-08-14T19:21:24.542Z,26.84
2022-08-14T19:26:35.579Z,26.67
2022-08-14T19:31:55.412Z,28.23
2022-08-14T19:37:09.885Z,27.11
2022-08-14T19:42:27.868Z,25.81
2022-08-14T19:47:41.251Z,27.48
2022-08-14T19:52:45.858Z,28.08
2022-08-14T19:57:58.723Z,27.57
2022-08-14T20:03:11.737Z,26.10
2022-08-14T20:11:02.420Z,27.61
2022-08-14T20:13:39.534Z,27.28
2022-08-14T20:18:51.994Z,25.80
2022-08-14T20:24:30.315Z,27.40
2022-08-14T20:29:38.855Z,27.03
2022-08-14T20:34:51.053Z,25.49
2022-08-14T20:39:55.675Z,27.17
2022-08-14T20:45:18.053Z,27.05
2022-08-14T20:50:28.822Z,25.25
2022-08-14T20:55:41.381Z,26.76
2022-08-14T21:00:57.653Z,27.25
2022-08-14T21:06:19.467Z,25.36
2022-08-14T21:11:25.176Z,26.08
2022-08-14T21:16:36.740Z,27.17
2022-08-14T21:21:45.348Z,25.41
2022-08-14T21:27:12.262Z,25.59
2022-08-14T21:32:50.563Z,27.35
2022-08-14T21:38:00.326Z,26.35
2022-08-14T21:43:03.272Z,25.00
2022-08-14T21:48:09.229Z,26.83
2022-08-14T21:53:14.573Z,26.68
2022-08-14T21:58:52.672Z,24.93
2022-08-14T22:03:44.964Z,26.57
2022-08-14T22:08:52.730Z,26.63
2022-08-14T22:13:58.361Z,24.67
2022-08-14T22:19:10.588Z,25.70
2022-08-14T22:24:37.759Z,27.03
2022-08-14T22:29:42.141Z,25.40
2022-08-14T22:34:48.603Z,25.28
2022-08-14T22:40:51.233Z,26.77
2022-08-14T22:45:14.535Z,25.08
2022-08-14T22:50:29.038Z,25.12
2022-08-14T22:55:36.523Z,26.71
2022-08-14T23:00:41.976Z,25.17
2022-08-14T23:05:51.764Z,24.89
2022-08-14T23:10:57.670Z,26.51
2022-08-14T23:16:00.675Z,25.23
2022-08-14T23:21:10.084Z,24.81
2022-08-14T23:26:48.072Z,26.43
2022-08-14T23:31:36.421Z,24.84
2022-08-14T23:36:53.428Z,24.58
2022-08-14T23:42:06.247Z,26.33
2022-08-14T23:47:25.252Z,25.28
2022-08-14T23:53:06.725Z,24.80
2022-08-14T23:58:00.672Z,26.20
